Time;durP1;ratioP1;P1;durP2;ratioP2;P2;SDS_P1;SDS_P2;PMS_P1;PMS_P2;Temp;Humidity;BMP_temperature;BMP_pressure;BME280_temperature;BME280_humidity;BME280_pressure;Samples;Min_cycle;Max_cycle;Signal;HPM_P1;HPM_P2
2021/08/16 00:00:12;;;;;;;6.07;3.47;;;;;;;;;;5111089;28;20069;-67
2021/08/16 00:02:38;;;;;;;9.20;3.50;;;;;;;;;;5110975;28;20050;-65
2021/08/16 00:05:05;;;;;;;7.50;3.65;;;;;;;;;;5110745;28;20030;-66
2021/08/16 00:07:31;;;;;;;6.95;4.00;;;;;;;;;;5110974;28;20020;-65
2021/08/16 00:09:57;;;;;;;8.55;3.92;;;;;;;;;;5111194;28;20040;-65
2021/08/16 00:14:04;;;;;;;6.47;3.65;;;;;;;;;;5111858;27;20393;-65
2021/08/16 00:17:19;;;;;;;8.57;3.85;;;;;;;;;;5131657;27;20112;-65
2021/08/16 00:19:45;;;;;;;9.10;3.55;;;;;;;;;;5111500;28;20077;-67
2021/08/16 00:22:11;;;;;;;9.32;4.20;;;;;;;;;;5111249;28;20024;-66
2021/08/16 00:24:50;;;;;;;9.10;4.13;;;;;;;;;;5111616;27;20505;-65
2021/08/16 00:27:16;;;;;;;8.05;3.97;;;;;;;;;;5109991;28;20377;-65
2021/08/16 00:30:55;;;;;;;7.05;3.97;;;;;;;;;;5111610;27;20405;-65
2021/08/16 00:33:21;;;;;;;6.15;3.85;;;;;;;;;;5110971;28;20020;-65
2021/08/16 00:35:47;;;;;;;8.57;4.05;;;;;;;;;;5111283;28;20020;-67
2021/08/16 00:38:14;;;;;;;6.47;3.55;;;;;;;;;;5111255;28;20053;-67
2021/08/16 00:40:40;;;;;;;6.90;3.47;;;;;;;;;;5110773;28;20077;-66
2021/08/16 00:43:06;;;;;;;8.05;3.60;;;;;;;;;;5111473;28;20024;-66
2021/08/16 00:45:32;;;;;;;7.70;3.70;;;;;;;;;;5110754;28;20020;-66
2021/08/16 00:47:59;;;;;;;6.90;3.95;;;;;;;;;;5111011;28;20021;-66
2021/08/16 00:50:25;;;;;;;9.52;4.43;;;;;;;;;;5110860;28;20039;-66
2021/08/16 00:53:30;;;;;;;6.78;3.72;;;;;;;;;;5111141;27;20931;-65
2021/08/16 00:58:12;;;;;;;6.00;3.38;;;;;;;;;;5111371;27;20753;-66
2021/08/16 01:00:39;;;;;;;8.23;3.90;;;;;;;;;;5110912;28;20077;-68
2021/08/16 01:03:05;;;;;;;7.65;3.85;;;;;;;;;;5111315;28;20024;-66
2021/08/16 01:12:59;;;;;;;7.60;3.40;;;;;;;;;;5027706;27;2034947;-65
2021/08/16 01:15:28;;;;;;;6.72;3.38;;;;;;;;;;5110986;28;20024;-65
2021/08/16 01:17:54;;;;;;;9.98;4.03;;;;;;;;;;5111323;28;20407;-66
2021/08/16 01:20:20;;;;;;;9.60;4.47;;;;;;;;;;5109864;28;20114;-66
2021/08/16 01:22:47;;;;;;;6.47;3.80;;;;;;;;;;5110778;28;20480;-66
2021/08/16 01:25:13;;;;;;;8.93;3.60;;;;;;;;;;5109868;28;20098;-66
2021/08/16 01:27:39;;;;;;;7.05;3.65;;;;;;;;;;5109397;28;20030;-66
2021/08/16 01:30:07;;;;;;;6.82;3.53;;;;;;;;;;5111037;28;20020;-66
2021/08/16 01:32:45;;;;;;;6.28;3.10;;;;;;;;;;5111775;27;20385;-66
2021/08/16 01:35:12;;;;;;;7.55;3.72;;;;;;;;;;5111122;28;20051;-66
2021/08/16 01:37:39;;;;;;;6.45;3.72;;;;;;;;;;5111413;28;20082;-66
2021/08/16 01:40:23;;;;;;;8.38;4.07;;;;;;;;;;5109992;28;20357;-66
2021/08/16 01:42:50;;;;;;;7.68;3.83;;;;;;;;;;5109567;28;20019;-66
2021/08/16 01:45:41;;;;;;;6.28;3.85;;;;;;;;;;5111480;27;20396;-67
2021/08/16 01:48:07;;;;;;;7.20;3.90;;;;;;;;;;5111397;28;20053;-66
2021/08/16 01:51:57;;;;;;;7.07;3.47;;;;;;;;;;5112167;27;20521;-67
2021/08/16 01:54:23;;;;;;;6.80;3.85;;;;;;;;;;5111337;28;20031;-66
2021/08/16 01:56:50;;;;;;;7.38;3.20;;;;;;;;;;5110888;28;20095;-66
2021/08/16 01:59:16;;;;;;;6.82;3.85;;;;;;;;;;5111255;28;20094;-66
2021/08/16 02:01:42;;;;;;;7.20;3.42;;;;;;;;;;5109866;28;20024;-66
2021/08/16 02:04:08;;;;;;;7.03;3.65;;;;;;;;;;5109535;28;20454;-66
2021/08/16 02:06:35;;;;;;;5.82;3.65;;;;;;;;;;5111160;28;20418;-66
2021/08/16 02:09:01;;;;;;;7.97;3.53;;;;;;;;;;5110988;28;20031;-66
2021/08/16 02:11:27;;;;;;;6.63;4.00;;;;;;;;;;5110608;28;20036;-66
2021/08/16 02:14:58;;;;;;;7.72;4.65;;;;;;;;;;5111704;27;20909;-65
2021/08/16 02:17:24;;;;;;;6.68;4.07;;;;;;;;;;5111063;28;20020;-65
2021/08/16 02:19:52;;;;;;;8.75;3.97;;;;;;;;;;5111300;28;20020;-65
2021/08/16 02:24:01;;;;;;;9.05;4.05;;;;;;;;;;5131654;27;20315;-65
2021/08/16 02:26:28;;;;;;;8.90;4.10;;;;;;;;;;5111257;28;20039;-65
2021/08/16 02:28:54;;;;;;;8.85;3.72;;;;;;;;;;5111820;28;20027;-65
2021/08/16 02:31:23;;;;;;;6.85;3.85;;;;;;;;;;5110894;28;20023;-65
2021/08/16 02:33:50;;;;;;;8.02;3.60;;;;;;;;;;5111111;28;20024;-65
2021/08/16 02:36:17;;;;;;;6.55;3.88;;;;;;;;;;5111117;28;20503;-65
2021/08/16 02:39:58;;;;;;;6.40;3.65;;;;;;;;;;5070467;28;20497;-66
2021/08/16 02:42:26;;;;;;;8.75;3.92;;;;;;;;;;5070824;28;20079;-65
2021/08/16 02:44:52;;;;;;;7.55;3.95;;;;;;;;;;5070627;28;20355;-65
2021/08/16 02:49:18;;;;;;;7.63;3.80;;;;;;;;;;5111834;27;20393;-67
2021/08/16 02:51:44;;;;;;;12.82;3.97;;;;;;;;;;5111447;28;20027;-65
2021/08/16 02:54:10;;;;;;;6.63;3.83;;;;;;;;;;5110986;28;20024;-65
2021/08/16 02:56:36;;;;;;;6.60;3.60;;;;;;;;;;5111487;28;20368;-66
2021/08/16 02:59:02;;;;;;;6.18;3.33;;;;;;;;;;5110999;28;20103;-66
2021/08/16 03:01:29;;;;;;;6.25;3.22;;;;;;;;;;5111475;28;20020;-68
2021/08/16 03:03:55;;;;;;;10.57;4.40;;;;;;;;;;5111152;28;20051;-68
2021/08/16 03:06:23;;;;;;;6.32;3.10;;;;;;;;;;5110779;28;20417;-69
2021/08/16 03:08:49;;;;;;;6.72;4.22;;;;;;;;;;5111304;28;20384;-67
2021/08/16 03:11:15;;;;;;;11.00;4.72;;;;;;;;;;5110951;28;20077;-68
2021/08/16 03:13:41;;;;;;;8.98;3.63;;;;;;;;;;5109377;28;20028;-67
2021/08/16 03:16:08;;;;;;;7.50;3.85;;;;;;;;;;5110904;28;20085;-67
2021/08/16 03:18:34;;;;;;;9.93;4.35;;;;;;;;;;5109539;28;20031;-67
2021/08/16 03:22:55;;;;;;;8.35;4.45;;;;;;;;;;5111830;27;20309;-65
2021/08/16 03:26:14;;;;;;;8.85;4.63;;;;;;;;;;5112002;27;20389;-65
2021/08/16 03:30:01;;;;;;;11.93;5.28;;;;;;;;;;5111818;27;20412;-68
2021/08/16 03:32:27;;;;;;;9.38;4.85;;;;;;;;;;5111356;28;20081;-65
2021/08/16 03:37:41;;;;;;;7.85;3.92;;;;;;;;;;5071572;27;20497;-65
2021/08/16 03:40:07;;;;;;;8.82;4.47;;;;;;;;;;5070787;28;20104;-65
2021/08/16 03:42:34;;;;;;;7.53;4.78;;;;;;;;;;5070340;28;20028;-65
2021/08/16 03:45:00;;;;;;;6.40;3.67;;;;;;;;;;5070760;28;20054;-66
2021/08/16 03:47:27;;;;;;;6.07;3.70;;;;;;;;;;5070813;28;20020;-65
2021/08/16 03:49:54;;;;;;;8.70;4.88;;;;;;;;;;5070260;28;20476;-65
2021/08/16 03:52:21;;;;;;;8.40;4.05;;;;;;;;;;5069262;28;20470;-65
2021/08/16 03:54:47;;;;;;;7.03;4.38;;;;;;;;;;5069184;28;20040;-67
2021/08/16 03:57:13;;;;;;;12.73;4.82;;;;;;;;;;5068760;28;20037;-66
2021/08/16 03:59:39;;;;;;;8.35;4.13;;;;;;;;;;5070376;28;20021;-65
2021/08/16 04:02:05;;;;;;;8.68;4.63;;;;;;;;;;5070568;28;20034;-65
2021/08/16 04:04:31;;;;;;;10.32;4.45;;;;;;;;;;5068629;28;20025;-66
2021/08/16 04:07:06;;;;;;;7.07;4.07;;;;;;;;;;5111375;27;20396;-69
2021/08/16 04:09:32;;;;;;;9.60;4.57;;;;;;;;;;5110949;28;20027;-67
2021/08/16 04:11:59;;;;;;;7.53;4.25;;;;;;;;;;5111258;28;20492;-67
2021/08/16 04:14:25;;;;;;;6.93;3.65;;;;;;;;;;5111235;28;20533;-66
2021/08/16 04:16:51;;;;;;;7.43;4.03;;;;;;;;;;5109588;28;20031;-67
2021/08/16 04:20:05;;;;;;;8.50;5.03;;;;;;;;;;5112208;27;20397;-66
2021/08/16 04:22:31;;;;;;;8.07;4.65;;;;;;;;;;5111376;28;20028;-67
2021/08/16 04:26:33;;;;;;;7.65;4.32;;;;;;;;;;5071103;28;20494;-65
2021/08/16 04:28:59;;;;;;;5.65;4.15;;;;;;;;;;5070798;28;20024;-66
2021/08/16 04:31:25;;;;;;;6.30;3.90;;;;;;;;;;5070275;28;20033;-65
2021/08/16 04:33:52;;;;;;;9.98;4.28;;;;;;;;;;5069429;28;20430;-66
2021/08/16 04:36:18;;;;;;;7.93;4.30;;;;;;;;;;5070677;28;20096;-68
2021/08/16 04:38:44;;;;;;;8.00;3.85;;;;;;;;;;5070466;28;20473;-67
2021/08/16 04:43:04;;;;;;;8.13;3.65;;;;;;;;;;5111447;27;20916;-67
2021/08/16 04:45:30;;;;;;;7.57;4.20;;;;;;;;;;5111029;28;20026;-66
2021/08/16 04:47:56;;;;;;;7.75;4.32;;;;;;;;;;5111280;28;20078;-68
2021/08/16 04:51:07;;;;;;;13.30;7.10;;;;;;;;;;5111829;27;20411;-65
2021/08/16 04:53:33;;;;;;;15.05;7.97;;;;;;;;;;5110981;28;20031;-67
2021/08/16 04:55:59;;;;;;;10.85;6.28;;;;;;;;;;5111482;28;20028;-66
2021/08/16 04:59:02;;;;;;;10.20;5.25;;;;;;;;;;5111430;27;20420;-67
2021/08/16 05:01:28;;;;;;;11.82;5.88;;;;;;;;;;5111308;28;20055;-65
2021/08/16 05:03:55;;;;;;;8.77;5.15;;;;;;;;;;5101412;28;20034;-66
2021/08/16 05:06:28;;;;;;;10.07;5.55;;;;;;;;;;5085761;28;20020;-66
2021/08/16 05:08:55;;;;;;;8.50;4.68;;;;;;;;;;5106856;28;20023;-67
2021/08/16 05:11:22;;;;;;;8.90;4.63;;;;;;;;;;5109740;28;20024;-67
2021/08/16 05:13:49;;;;;;;9.57;5.32;;;;;;;;;;5109865;28;20039;-67
2021/08/16 05:16:23;;;;;;;11.32;5.13;;;;;;;;;;5110875;28;20100;-66
2021/08/16 05:18:50;;;;;;;7.80;4.43;;;;;;;;;;5106966;28;20067;-67
2021/08/16 05:21:16;;;;;;;8.85;4.53;;;;;;;;;;5110122;28;20049;-66
2021/08/16 05:23:42;;;;;;;7.15;3.88;;;;;;;;;;5110817;28;20024;-66
2021/08/16 05:26:09;;;;;;;9.93;4.90;;;;;;;;;;5110610;28;20027;-66
2021/08/16 05:28:35;;;;;;;9.30;4.50;;;;;;;;;;5110330;28;20028;-66
2021/08/16 05:31:01;;;;;;;8.20;4.68;;;;;;;;;;5110808;28;20073;-66
2021/08/16 05:33:28;;;;;;;7.47;4.07;;;;;;;;;;5110219;28;20016;-68
2021/08/16 05:35:54;;;;;;;8.13;4.35;;;;;;;;;;5108942;28;20038;-68
2021/08/16 05:38:20;;;;;;;12.68;5.00;;;;;;;;;;5109505;28;20491;-68
2021/08/16 05:40:46;;;;;;;7.80;4.07;;;;;;;;;;5106639;28;20020;-66
2021/08/16 05:43:12;;;;;;;6.45;3.83;;;;;;;;;;5106325;28;20430;-66
2021/08/16 05:45:39;;;;;;;6.53;3.65;;;;;;;;;;5106792;28;20024;-66
2021/08/16 05:48:05;;;;;;;7.10;3.90;;;;;;;;;;5106687;28;20039;-65
2021/08/16 05:50:32;;;;;;;7.85;3.80;;;;;;;;;;5108498;28;20024;-66
2021/08/16 05:52:58;;;;;;;7.45;4.15;;;;;;;;;;5102816;28;20024;-66
2021/08/16 05:55:24;;;;;;;6.45;4.22;;;;;;;;;;5089231;28;20020;-66
2021/08/16 05:57:50;;;;;;;8.68;4.50;;;;;;;;;;5089410;28;20497;-68
2021/08/16 06:00:18;;;;;;;8.15;4.63;;;;;;;;;;5108208;28;20063;-68
2021/08/16 06:02:44;;;;;;;6.97;4.13;;;;;;;;;;5109780;28;20020;-66
2021/08/16 06:05:10;;;;;;;8.00;4.15;;;;;;;;;;5110203;28;20447;-66
2021/08/16 06:07:37;;;;;;;7.50;4.43;;;;;;;;;;5107576;28;20031;-66
2021/08/16 06:10:04;;;;;;;11.23;4.00;;;;;;;;;;5097314;28;20438;-65
2021/08/16 06:12:31;;;;;;;6.50;3.80;;;;;;;;;;5094848;28;20035;-66
2021/08/16 06:14:57;;;;;;;9.23;4.00;;;;;;;;;;5094377;28;20024;-66
2021/08/16 06:17:24;;;;;;;8.25;4.13;;;;;;;;;;5095511;28;20025;-66
2021/08/16 06:19:50;;;;;;;6.53;3.97;;;;;;;;;;5096300;28;20019;-66
2021/08/16 06:22:16;;;;;;;7.93;3.92;;;;;;;;;;5090880;28;20028;-65
2021/08/16 06:24:42;;;;;;;7.85;4.20;;;;;;;;;;5095564;28;20020;-66
2021/08/16 06:27:08;;;;;;;6.63;3.78;;;;;;;;;;5095493;28;20032;-65
2021/08/16 06:29:35;;;;;;;7.32;4.05;;;;;;;;;;5095844;28;20024;-66
2021/08/16 06:32:01;;;;;;;8.05;4.22;;;;;;;;;;5094575;28;20043;-67
2021/08/16 06:34:27;;;;;;;7.20;4.10;;;;;;;;;;5094302;28;20055;-68
2021/08/16 06:36:55;;;;;;;7.63;4.32;;;;;;;;;;5095569;28;20028;-68
2021/08/16 06:39:22;;;;;;;7.10;4.10;;;;;;;;;;5095539;28;20119;-67
2021/08/16 06:41:52;;;;;;;8.27;4.03;;;;;;;;;;5095754;28;20176;-67
2021/08/16 06:44:20;;;;;;;9.70;3.70;;;;;;;;;;5095132;28;20528;-67
2021/08/16 06:46:47;;;;;;;6.85;3.60;;;;;;;;;;5095680;28;20028;-67
2021/08/16 06:49:14;;;;;;;6.18;3.55;;;;;;;;;;5094267;28;20020;-67
2021/08/16 06:51:40;;;;;;;6.68;3.67;;;;;;;;;;5093864;28;20479;-66
2021/08/16 06:54:07;;;;;;;12.32;4.75;;;;;;;;;;5095042;28;20099;-67
2021/08/16 06:56:33;;;;;;;7.85;3.78;;;;;;;;;;5093565;28;20028;-66
2021/08/16 06:58:59;;;;;;;7.47;4.40;;;;;;;;;;5095121;28;20115;-66
2021/08/16 07:03:22;;;;;;;12.02;4.68;;;;;;;;;;5110819;27;20529;-66
2021/08/16 07:05:48;;;;;;;8.23;4.20;;;;;;;;;;5110833;28;20070;-66
2021/08/16 07:08:14;;;;;;;5.75;3.28;;;;;;;;;;5110780;28;20047;-66
2021/08/16 07:10:41;;;;;;;7.22;4.00;;;;;;;;;;5110113;28;20016;-66
2021/08/16 07:13:09;;;;;;;8.63;4.20;;;;;;;;;;5110619;28;20069;-69
2021/08/16 07:15:35;;;;;;;6.70;3.38;;;;;;;;;;5108776;28;20030;-70
2021/08/16 07:18:03;;;;;;;6.70;3.97;;;;;;;;;;5108186;28;20020;-66
2021/08/16 07:20:29;;;;;;;6.82;4.05;;;;;;;;;;5109734;28;20053;-69
2021/08/16 07:22:55;;;;;;;7.53;4.20;;;;;;;;;;5110652;28;20064;-68
2021/08/16 07:25:22;;;;;;;5.72;3.65;;;;;;;;;;5110442;28;20060;-67
2021/08/16 07:27:48;;;;;;;8.35;4.38;;;;;;;;;;5109272;28;20536;-68
2021/08/16 07:30:14;;;;;;;10.50;4.63;;;;;;;;;;5109841;28;20038;-68
2021/08/16 07:32:41;;;;;;;7.88;4.13;;;;;;;;;;5110773;28;20414;-69
2021/08/16 07:35:07;;;;;;;6.82;4.05;;;;;;;;;;5109649;28;20053;-69
2021/08/16 07:37:33;;;;;;;6.40;3.70;;;;;;;;;;5108473;28;20408;-69
2021/08/16 07:40:00;;;;;;;7.72;4.22;;;;;;;;;;5107969;28;20020;-70
2021/08/16 07:42:26;;;;;;;8.65;4.00;;;;;;;;;;5108298;28;20028;-71
2021/08/16 07:44:53;;;;;;;9.63;4.57;;;;;;;;;;5109301;28;20057;-67
2021/08/16 07:47:19;;;;;;;6.68;3.95;;;;;;;;;;5108944;28;20024;-67
2021/08/16 07:49:45;;;;;;;6.40;3.17;;;;;;;;;;5109351;28;20023;-66
2021/08/16 07:52:12;;;;;;;5.95;3.47;;;;;;;;;;5109679;28;20055;-66
2021/08/16 07:54:38;;;;;;;7.80;4.15;;;;;;;;;;5109844;28;20531;-67
2021/08/16 07:57:04;;;;;;;6.72;3.80;;;;;;;;;;5110020;28;20110;-66
2021/08/16 07:59:31;;;;;;;14.13;5.53;;;;;;;;;;5109877;28;20496;-67
2021/08/16 08:01:57;;;;;;;8.00;3.85;;;;;;;;;;5107500;28;20785;-66
2021/08/16 08:04:23;;;;;;;6.65;3.70;;;;;;;;;;5107513;28;20020;-67
2021/08/16 08:06:49;;;;;;;7.55;3.83;;;;;;;;;;5108363;28;20031;-67
2021/08/16 08:09:15;;;;;;;7.32;3.65;;;;;;;;;;5108495;28;20468;-67
2021/08/16 08:11:42;;;;;;;6.65;3.75;;;;;;;;;;5109342;28;20032;-68
2021/08/16 08:14:08;;;;;;;11.20;3.85;;;;;;;;;;5093630;28;20085;-68
2021/08/16 08:16:34;;;;;;;8.43;4.07;;;;;;;;;;5095370;28;20095;-65
2021/08/16 08:19:00;;;;;;;7.88;4.47;;;;;;;;;;5096135;28;20016;-66
2021/08/16 08:21:26;;;;;;;6.10;3.75;;;;;;;;;;5095692;28;20468;-66
2021/08/16 08:23:53;;;;;;;10.05;3.90;;;;;;;;;;5095406;28;20032;-66
2021/08/16 08:26:19;;;;;;;7.22;3.63;;;;;;;;;;5094432;28;20107;-66
2021/08/16 08:28:45;;;;;;;7.80;4.03;;;;;;;;;;5095800;28;20028;-65
2021/08/16 08:31:11;;;;;;;7.93;3.75;;;;;;;;;;5095532;28;20016;-65
2021/08/16 08:33:37;;;;;;;7.28;3.78;;;;;;;;;;5094520;28;20389;-66
2021/08/16 08:36:04;;;;;;;5.88;3.50;;;;;;;;;;5095485;28;20055;-66
2021/08/16 08:38:30;;;;;;;6.30;3.47;;;;;;;;;;5095430;28;20353;-65
2021/08/16 08:40:58;;;;;;;5.65;3.70;;;;;;;;;;5095529;28;20027;-67
2021/08/16 08:43:25;;;;;;;7.38;3.42;;;;;;;;;;5095642;28;20484;-67
2021/08/16 08:45:55;;;;;;;6.80;4.30;;;;;;;;;;5095185;28;20357;-67
2021/08/16 08:48:21;;;;;;;5.75;3.63;;;;;;;;;;5095509;28;20085;-67
2021/08/16 08:50:49;;;;;;;8.18;3.75;;;;;;;;;;5095119;28;20095;-66
2021/08/16 08:53:15;;;;;;;8.52;4.03;;;;;;;;;;5095691;28;20016;-67
2021/08/16 08:55:41;;;;;;;7.25;3.70;;;;;;;;;;5094561;28;20051;-67
2021/08/16 08:58:08;;;;;;;7.57;4.00;;;;;;;;;;5094930;28;20050;-67
2021/08/16 09:00:36;;;;;;;5.75;3.47;;;;;;;;;;5095544;28;20028;-67
2021/08/16 09:03:03;;;;;;;6.97;3.85;;;;;;;;;;5094946;28;20048;-67
2021/08/16 09:05:31;;;;;;;4.93;3.30;;;;;;;;;;5093631;28;20495;-67
2021/08/16 09:08:00;;;;;;;5.95;3.40;;;;;;;;;;5095055;28;20020;-68
2021/08/16 09:10:27;;;;;;;6.32;3.40;;;;;;;;;;5093681;28;20024;-67
2021/08/16 09:12:58;;;;;;;5.65;3.00;;;;;;;;;;5093877;28;20016;-67
2021/08/16 09:15:24;;;;;;;5.95;3.13;;;;;;;;;;5095174;28;20099;-66
2021/08/16 09:17:51;;;;;;;5.28;3.50;;;;;;;;;;5093603;28;20065;-67
2021/08/16 09:20:30;;;;;;;6.22;3.53;;;;;;;;;;5094502;28;20524;-67
2021/08/16 09:22:58;;;;;;;7.80;3.72;;;;;;;;;;5094804;28;20391;-66
2021/08/16 09:25:25;;;;;;;6.32;3.85;;;;;;;;;;5092506;28;20027;-66
2021/08/16 09:27:52;;;;;;;6.25;3.58;;;;;;;;;;5076392;28;20036;-66
2021/08/16 09:30:28;;;;;;;6.25;3.35;;;;;;;;;;5094606;28;20484;-65
2021/08/16 09:32:55;;;;;;;6.25;4.00;;;;;;;;;;5091659;28;20165;-67
2021/08/16 09:35:21;;;;;;;6.63;3.97;;;;;;;;;;5094876;28;20021;-65
2021/08/16 09:37:54;;;;;;;7.47;4.40;;;;;;;;;;5094308;28;20410;-66
2021/08/16 09:40:20;;;;;;;6.30;3.65;;;;;;;;;;5094023;28;20017;-67
2021/08/16 09:42:50;;;;;;;6.00;3.70;;;;;;;;;;5094374;28;20036;-66
2021/08/16 09:45:29;;;;;;;6.85;3.38;;;;;;;;;;5093145;28;20028;-66
2021/08/16 09:47:58;;;;;;;6.72;3.75;;;;;;;;;;5092662;28;20104;-66
2021/08/16 09:50:44;;;;;;;5.53;3.60;;;;;;;;;;5093696;28;20024;-65
2021/08/16 09:53:15;;;;;;;6.80;3.75;;;;;;;;;;5092976;28;20027;-66
2021/08/16 09:55:43;;;;;;;6.90;4.30;;;;;;;;;;5093963;28;20032;-66
2021/08/16 09:58:10;;;;;;;7.55;4.25;;;;;;;;;;5094138;28;20024;-65
2021/08/16 10:00:40;;;;;;;5.18;3.42;;;;;;;;;;5094150;28;20132;-68
2021/08/16 10:03:08;;;;;;;7.70;3.83;;;;;;;;;;5093373;28;20051;-67
2021/08/16 10:05:38;;;;;;;6.45;3.50;;;;;;;;;;5092626;28;20077;-65
2021/08/16 10:08:08;;;;;;;9.25;3.33;;;;;;;;;;5091799;28;20077;-66
2021/08/16 10:10:38;;;;;;;6.88;3.95;;;;;;;;;;5095306;28;20095;-65
2021/08/16 10:13:05;;;;;;;8.43;4.07;;;;;;;;;;5093833;28;20039;-66
2021/08/16 10:15:35;;;;;;;8.90;3.80;;;;;;;;;;5093375;28;20020;-66
2021/08/16 10:18:01;;;;;;;7.32;4.43;;;;;;;;;;5093658;28;20028;-65
2021/08/16 10:20:29;;;;;;;7.18;3.40;;;;;;;;;;5093994;28;20026;-66
2021/08/16 10:22:55;;;;;;;6.53;3.85;;;;;;;;;;5093300;28;20387;-66
2021/08/16 10:25:22;;;;;;;8.35;3.88;;;;;;;;;;5093817;28;20361;-66
2021/08/16 10:27:49;;;;;;;6.00;3.00;;;;;;;;;;5093603;28;20036;-66
2021/08/16 10:30:17;;;;;;;4.68;2.85;;;;;;;;;;5093196;28;20031;-66
2021/08/16 10:32:43;;;;;;;5.97;3.17;;;;;;;;;;5093464;28;20069;-67
2021/08/16 10:35:13;;;;;;;6.97;3.30;;;;;;;;;;5093699;28;20474;-66
2021/08/16 10:37:43;;;;;;;5.80;3.13;;;;;;;;;;5092752;28;20543;-65
2021/08/16 10:40:22;;;;;;;5.40;3.25;;;;;;;;;;5092213;28;20039;-67
2021/08/16 10:42:51;;;;;;;6.35;3.10;;;;;;;;;;5092324;28;20046;-67
2021/08/16 10:45:24;;;;;;;7.22;3.53;;;;;;;;;;5092429;28;20372;-67
2021/08/16 10:47:59;;;;;;;5.60;3.35;;;;;;;;;;5093393;28;20376;-67
2021/08/16 10:50:25;;;;;;;5.72;3.20;;;;;;;;;;5092824;28;20020;-67
2021/08/16 10:52:59;;;;;;;5.45;3.35;;;;;;;;;;5093120;28;20027;-66
2021/08/16 10:55:26;;;;;;;7.43;3.58;;;;;;;;;;5092804;28;20020;-66
2021/08/16 10:57:54;;;;;;;6.10;3.55;;;;;;;;;;5091307;28;20035;-66
2021/08/16 11:00:20;;;;;;;6.35;3.42;;;;;;;;;;5093274;28;20028;-66
2021/08/16 11:02:46;;;;;;;5.53;2.95;;;;;;;;;;5093124;28;20094;-66
2021/08/16 11:05:14;;;;;;;5.32;3.50;;;;;;;;;;5091750;28;20043;-67
2021/08/16 11:07:41;;;;;;;6.18;3.42;;;;;;;;;;5093384;28;20028;-67
2021/08/16 11:10:08;;;;;;;7.85;3.47;;;;;;;;;;5093187;28;20469;-67
2021/08/16 11:12:35;;;;;;;7.68;4.13;;;;;;;;;;5092845;28;20028;-67
2021/08/16 11:15:01;;;;;;;6.63;3.92;;;;;;;;;;5093318;28;20095;-67
2021/08/16 11:17:29;;;;;;;7.15;3.90;;;;;;;;;;5092239;28;20031;-68
2021/08/16 11:19:57;;;;;;;6.30;3.83;;;;;;;;;;5092946;28;20040;-65
2021/08/16 11:22:23;;;;;;;12.48;4.28;;;;;;;;;;5092941;28;20111;-67
2021/08/16 11:24:50;;;;;;;6.30;3.70;;;;;;;;;;5092825;28;20024;-66
2021/08/16 11:27:19;;;;;;;7.40;4.20;;;;;;;;;;5092757;28;20033;-67
2021/08/16 11:29:55;;;;;;;7.13;3.45;;;;;;;;;;5091079;28;20151;-68
2021/08/16 11:32:24;;;;;;;6.57;3.80;;;;;;;;;;5092680;28;20043;-68
2021/08/16 11:34:53;;;;;;;8.52;4.07;;;;;;;;;;5093131;28;20074;-67
2021/08/16 11:37:20;;;;;;;7.18;4.18;;;;;;;;;;5087172;28;20284;-67
2021/08/16 11:39:49;;;;;;;8.93;5.40;;;;;;;;;;5089515;28;20443;-66
2021/08/16 11:42:17;;;;;;;8.43;5.00;;;;;;;;;;5075755;28;20028;-66
2021/08/16 11:44:43;;;;;;;7.55;4.63;;;;;;;;;;5092695;28;20024;-70
2021/08/16 11:47:09;;;;;;;7.97;5.20;;;;;;;;;;5092184;28;20039;-67
2021/08/16 11:49:37;;;;;;;8.35;4.45;;;;;;;;;;5095782;28;20358;-67
2021/08/16 11:52:04;;;;;;;7.47;4.93;;;;;;;;;;5096435;28;20085;-64
2021/08/16 11:54:32;;;;;;;11.98;5.78;;;;;;;;;;5095869;28;20016;-67
2021/08/16 11:56:59;;;;;;;8.65;5.38;;;;;;;;;;5096503;28;20026;-66
2021/08/16 11:59:26;;;;;;;6.97;4.60;;;;;;;;;;5096378;28;20028;-66
2021/08/16 12:01:53;;;;;;;7.75;4.53;;;;;;;;;;5095885;28;20055;-66
2021/08/16 12:04:21;;;;;;;8.70;5.45;;;;;;;;;;5096221;28;20047;-67
2021/08/16 12:06:48;;;;;;;9.73;4.55;;;;;;;;;;5096507;28;20023;-69
2021/08/16 12:09:14;;;;;;;7.90;4.50;;;;;;;;;;5095780;28;20032;-66
2021/08/16 12:11:40;;;;;;;8.10;4.68;;;;;;;;;;5095156;28;20024;-67
2021/08/16 12:14:07;;;;;;;7.20;4.40;;;;;;;;;;5096243;28;20031;-68
2021/08/16 12:16:34;;;;;;;8.15;4.53;;;;;;;;;;5095872;28;20020;-68
2021/08/16 12:19:00;;;;;;;7.22;4.07;;;;;;;;;;5096223;28;20074;-68
2021/08/16 12:21:27;;;;;;;7.28;3.60;;;;;;;;;;5095900;28;20503;-68
2021/08/16 12:24:04;;;;;;;8.93;4.13;;;;;;;;;;5094954;28;20357;-68
2021/08/16 12:26:40;;;;;;;10.68;4.30;;;;;;;;;;5110397;28;20463;-69
2021/08/16 12:29:17;;;;;;;7.25;4.07;;;;;;;;;;5115871;28;20035;-68
2021/08/16 12:31:43;;;;;;;7.07;3.55;;;;;;;;;;5104106;28;20479;-71
2021/08/16 12:34:12;;;;;;;4.93;3.45;;;;;;;;;;5094685;28;20035;-69
2021/08/16 12:36:40;;;;;;;7.43;4.22;;;;;;;;;;5095616;28;20016;-69
2021/08/16 12:39:13;;;;;;;7.72;3.63;;;;;;;;;;5095713;28;20023;-68
2021/08/16 12:41:40;;;;;;;4.88;3.33;;;;;;;;;;5095708;28;20028;-68
2021/08/16 12:44:22;;;;;;;5.80;3.22;;;;;;;;;;5095599;28;20426;-68
2021/08/16 12:46:59;;;;;;;5.68;3.70;;;;;;;;;;5095761;28;20377;-68
2021/08/16 12:49:26;;;;;;;7.63;3.63;;;;;;;;;;5089908;28;20027;-67
2021/08/16 12:51:52;;;;;;;5.75;3.53;;;;;;;;;;5093844;28;20119;-67
2021/08/16 12:54:18;;;;;;;9.75;3.60;;;;;;;;;;5095416;28;20020;-66
2021/08/16 12:56:44;;;;;;;4.03;2.70;;;;;;;;;;5094967;28;20020;-68
2021/08/16 12:59:11;;;;;;;7.20;3.97;;;;;;;;;;5094969;28;20099;-68
2021/08/16 13:01:37;;;;;;;6.05;2.78;;;;;;;;;;5094956;28;20504;-68
2021/08/16 13:04:03;;;;;;;6.03;3.63;;;;;;;;;;5094589;28;20056;-68
2021/08/16 13:06:30;;;;;;;5.72;3.40;;;;;;;;;;5095058;28;20024;-67
2021/08/16 13:08:56;;;;;;;6.13;3.47;;;;;;;;;;5095154;28;20046;-67
2021/08/16 13:11:22;;;;;;;5.97;3.78;;;;;;;;;;5094404;28;20034;-68
2021/08/16 13:13:48;;;;;;;5.40;3.42;;;;;;;;;;5094998;28;20428;-69
2021/08/16 13:16:14;;;;;;;5.18;3.65;;;;;;;;;;5094705;28;20028;-68
2021/08/16 13:18:40;;;;;;;5.88;3.67;;;;;;;;;;5094018;28;20068;-68
2021/08/16 13:21:08;;;;;;;6.07;3.65;;;;;;;;;;5095052;28;20370;-68
2021/08/16 13:23:35;;;;;;;4.45;2.60;;;;;;;;;;5095078;28;20103;-68
2021/08/16 13:26:01;;;;;;;5.13;3.40;;;;;;;;;;5092682;28;20026;-67
2021/08/16 13:28:27;;;;;;;6.15;3.45;;;;;;;;;;5097289;28;20059;-67
2021/08/16 13:30:54;;;;;;;7.53;3.35;;;;;;;;;;5095051;28;20107;-68
2021/08/16 13:33:20;;;;;;;6.68;3.70;;;;;;;;;;5094492;28;20025;-68
2021/08/16 13:35:47;;;;;;;5.18;3.13;;;;;;;;;;5093506;28;20111;-68
2021/08/16 13:38:13;;;;;;;5.53;3.47;;;;;;;;;;5093460;28;20051;-68
2021/08/16 13:40:40;;;;;;;5.50;3.25;;;;;;;;;;5094535;28;20027;-68
2021/08/16 13:43:06;;;;;;;5.97;3.75;;;;;;;;;;5094593;28;20541;-68
2021/08/16 13:45:32;;;;;;;4.85;3.00;;;;;;;;;;5094319;28;20032;-68
2021/08/16 13:47:59;;;;;;;4.97;3.05;;;;;;;;;;5094284;28;20028;-68
2021/08/16 13:50:25;;;;;;;4.43;3.03;;;;;;;;;;5094643;28;20036;-68
2021/08/16 13:52:52;;;;;;;4.55;2.63;;;;;;;;;;5094760;28;20043;-67
2021/08/16 13:55:18;;;;;;;5.40;3.20;;;;;;;;;;5093988;28;20031;-67
2021/08/16 13:57:44;;;;;;;8.63;4.85;;;;;;;;;;5094404;28;20039;-68
2021/08/16 14:00:10;;;;;;;11.73;5.25;;;;;;;;;;5092815;28;20031;-68
2021/08/16 14:02:37;;;;;;;5.78;3.28;;;;;;;;;;5092882;28;20036;-68
2021/08/16 14:05:03;;;;;;;5.03;2.90;;;;;;;;;;5093104;28;20047;-68
2021/08/16 14:07:29;;;;;;;6.72;3.17;;;;;;;;;;5093958;28;20028;-68
2021/08/16 14:09:55;;;;;;;5.90;3.20;;;;;;;;;;5094603;28;20035;-68
2021/08/16 14:12:21;;;;;;;5.35;2.90;;;;;;;;;;5092545;28;20425;-68
2021/08/16 14:14:48;;;;;;;3.65;2.63;;;;;;;;;;5092530;28;20048;-68
2021/08/16 14:17:14;;;;;;;5.75;3.22;;;;;;;;;;5092874;28;20036;-68
2021/08/16 14:19:40;;;;;;;5.55;2.80;;;;;;;;;;5094120;28;20490;-67
2021/08/16 14:22:06;;;;;;;9.23;4.43;;;;;;;;;;5094018;28;20036;-68
2021/08/16 14:24:33;;;;;;;5.18;3.30;;;;;;;;;;5094003;28;20050;-69
2021/08/16 14:26:59;;;;;;;14.25;6.13;;;;;;;;;;5094027;28;20024;-68
2021/08/16 14:29:25;;;;;;;5.28;2.92;;;;;;;;;;5092346;28;20418;-69
2021/08/16 14:31:52;;;;;;;8.73;4.07;;;;;;;;;;5093929;28;20035;-68
2021/08/16 14:34:18;;;;;;;11.93;4.45;;;;;;;;;;5094131;28;20023;-68
2021/08/16 14:36:44;;;;;;;20.60;5.47;;;;;;;;;;5093428;28;20027;-68
2021/08/16 14:39:10;;;;;;;5.57;3.15;;;;;;;;;;5093917;28;20078;-68
2021/08/16 14:41:37;;;;;;;4.97;2.03;;;;;;;;;;5092430;28;20531;-67
2021/08/16 14:44:04;;;;;;;4.60;2.50;;;;;;;;;;5093296;28;20384;-67
2021/08/16 14:46:30;;;;;;;3.50;2.10;;;;;;;;;;5093732;28;20429;-68
2021/08/16 14:48:57;;;;;;;3.80;2.40;;;;;;;;;;5092452;28;20025;-69
2021/08/16 14:51:23;;;;;;;3.40;2.20;;;;;;;;;;5092019;28;20021;-68
2021/08/16 14:53:49;;;;;;;3.65;2.03;;;;;;;;;;5093667;28;20380;-68
2021/08/16 14:56:16;;;;;;;3.08;2.13;;;;;;;;;;5093279;28;20024;-69
2021/08/16 14:58:42;;;;;;;4.80;2.08;;;;;;;;;;5093503;28;20027;-69
2021/08/16 15:01:09;;;;;;;2.53;1.85;;;;;;;;;;5092065;28;20070;-69
2021/08/16 15:03:38;;;;;;;3.55;2.05;;;;;;;;;;5093419;28;20075;-68
2021/08/16 15:06:05;;;;;;;4.00;2.03;;;;;;;;;;5093521;28;20044;-68
2021/08/16 15:08:32;;;;;;;3.85;2.45;;;;;;;;;;5093408;28;20028;-68
2021/08/16 15:11:02;;;;;;;4.55;2.30;;;;;;;;;;5093067;28;20028;-68
2021/08/16 15:13:28;;;;;;;3.78;2.05;;;;;;;;;;5093437;28;20012;-68
2021/08/16 15:15:54;;;;;;;4.63;1.77;;;;;;;;;;5093201;28;20032;-67
2021/08/16 15:18:21;;;;;;;3.35;2.22;;;;;;;;;;5093235;28;20048;-68